Aviation Digital Data Service (ADDS)

Output produced by METARs form (1442 UTC 20 September 2017)
found at http://www.aviationweather.gov/adds/metars/
 
TAF TBPB 201100Z 2012/2112 11013KT 9999 SCT018 
     PROB30 
     TEMPO 2012/2018 SHRA BKN014 FEW015CB